Sturgeon Bay, WI (54235)

1:39 PM CDT on April 25, 2015 (GMT -0500)
APRSWXNET | | Change Station
CLOSE
Current Station
Personal Weather Station
Location: Sturgeon Bay, WI
Elevation: 597 ft
Nearby Weather Stations

Elev 597 ft 44.83 °N, 87.36 °W | Updated 26 minutes ago

Overcast
Overcast
44 °F
Feels Like 39 °F
N
9
Wind Variable Wind from East
Gusts 18.0 mph

Today
High -- | Low -- °F
--% Chance of Precip.
Yesterday
High -- | Low -- °F
Precip. -- in
5:48 AM 7:47 PM
Waxing Crescent, 48% visible
Pressure 29.93 in
Visibility 10.0 miles
Clouds Overcast 12000 ft
Windchill 39 °F
Dew Point 21 °F
Humidity 39%
Rainfall in
Snow Depth Not available.
UV 3 out of 12
Pollen 8.40 out of 12
Air Quality Not available.
Flu Activity Local Activity
METAR KSUE 251835Z AUTO 36015KT 10SM OVC120 07/M05 A2993 RMK AO1

More Conditions Fewer Conditions

Pressure 29.93 in
Visibility 10.0 miles
Clouds Overcast 12000 ft
Windchill 39 °F
Dew Point 21 °F
Humidity 39%
Rainfall in
Snow Depth Not available.
UV 3 out of 12
Pollen 8.40 out of 12
Air Quality Not available.
Flu Activity Local Activity
METAR KSUE 251835Z AUTO 36015KT 10SM OVC120 07/M05 A2993 RMK AO1

More Conditions Fewer Conditions

10-Day Weather Forecast

Almanac

Astronomy

Apr. 25, 2015 Rise Set
Actual Time
Civil Twilight
Nautical Twilight
Astronomical Twilight
Moon
Length of Visible Light
Length of Day
Tomorrow will be .
, % of the Moon is Illuminated

Today's Extremes

State Highs State Lows

Community

WunderPhotos

Upload Photos

1,816,766 photos uploaded!

WunderBlogs® & News

Nearby

Air Quality

  Air Quality AQ Index Pollutant
Not available.

Snow Depth

Station Depth Elevation

Earthquake Activity

City Distance Mag. Time & Date
Minimum magnitude displayed is 2.5.

Coastal Water Temperatures

Place Temperature

Stations

Nearby Weather Stations

Station Location Temp. Windchill Dew Point Humidity Wind Precip. Elev Updated Type